sensor_id;sensor_type;location;lat;lon;timestamp;P1;durP1;ratioP1;P2;durP2;ratioP2
22040;SDS011;11184;52.444;13.578;2022-10-16T00:02:15;3.30;;;3.10;;
22040;SDS011;11184;52.444;13.578;2022-10-16T00:04:59;9.50;;;3.75;;
22040;SDS011;11184;52.444;13.578;2022-10-16T00:07:44;3.15;;;2.85;;
22040;SDS011;11184;52.444;13.578;2022-10-16T00:10:28;3.72;;;3.42;;
22040;SDS011;11184;52.444;13.578;2022-10-16T00:13:13;3.40;;;2.63;;
22040;SDS011;11184;52.444;13.578;2022-10-16T00:16:01;2.72;;;2.40;;
22040;SDS011;11184;52.444;13.578;2022-10-16T00:18:45;4.55;;;3.08;;
22040;SDS011;11184;52.444;13.578;2022-10-16T00:21:31;2.15;;;2.05;;
22040;SDS011;11184;52.444;13.578;2022-10-16T00:24:16;3.13;;;2.85;;
22040;SDS011;11184;52.444;13.578;2022-10-16T00:27:00;4.72;;;2.85;;
22040;SDS011;11184;52.444;13.578;2022-10-16T00:29:45;3.25;;;2.92;;
22040;SDS011;11184;52.444;13.578;2022-10-16T00:32:29;4.22;;;3.05;;
22040;SDS011;11184;52.444;13.578;2022-10-16T00:35:14;3.42;;;2.97;;
22040;SDS011;11184;52.444;13.578;2022-10-16T00:37:58;2.70;;;2.20;;
22040;SDS011;11184;52.444;13.578;2022-10-16T00:40:43;2.17;;;2.08;;
22040;SDS011;11184;52.444;13.578;2022-10-16T00:43:32;3.53;;;3.22;;
22040;SDS011;11184;52.444;13.578;2022-10-16T00:49:18;2.40;;;2.20;;
22040;SDS011;11184;52.444;13.578;2022-10-16T00:52:03;2.90;;;1.95;;
22040;SDS011;11184;52.444;13.578;2022-10-16T00:54:48;2.42;;;2.22;;
22040;SDS011;11184;52.444;13.578;2022-10-16T00:57:33;2.30;;;2.13;;
22040;SDS011;11184;52.444;13.578;2022-10-16T01:00:20;1.88;;;1.67;;
22040;SDS011;11184;52.444;13.578;2022-10-16T01:03:22;2.70;;;2.42;;
22040;SDS011;11184;52.444;13.578;2022-10-16T01:06:21;3.38;;;2.80;;
22040;SDS011;11184;52.444;13.578;2022-10-16T01:12:10;2.55;;;2.25;;
22040;SDS011;11184;52.444;13.578;2022-10-16T01:14:58;2.65;;;1.80;;
22040;SDS011;11184;52.444;13.578;2022-10-16T01:17:57;4.05;;;2.78;;
22040;SDS011;11184;52.444;13.578;2022-10-16T01:20:47;3.13;;;1.90;;
22040;SDS011;11184;52.444;13.578;2022-10-16T01:29:18;2.53;;;1.92;;
22040;SDS011;11184;52.444;13.578;2022-10-16T01:32:07;2.28;;;2.00;;
22040;SDS011;11184;52.444;13.578;2022-10-16T01:34:57;2.40;;;2.20;;
22040;SDS011;11184;52.444;13.578;2022-10-16T01:37:51;3.05;;;2.78;;
22040;SDS011;11184;52.444;13.578;2022-10-16T01:40:38;2.60;;;2.22;;
22040;SDS011;11184;52.444;13.578;2022-10-16T01:43:27;3.38;;;3.10;;
22040;SDS011;11184;52.444;13.578;2022-10-16T01:46:16;3.72;;;2.65;;
22040;SDS011;11184;52.444;13.578;2022-10-16T01:49:03;4.90;;;2.28;;
22040;SDS011;11184;52.444;13.578;2022-10-16T01:51:48;2.85;;;2.20;;
22040;SDS011;11184;52.444;13.578;2022-10-16T01:54:35;2.97;;;2.35;;
22040;SDS011;11184;52.444;13.578;2022-10-16T01:57:21;2.10;;;1.98;;
22040;SDS011;11184;52.444;13.578;2022-10-16T02:00:07;2.65;;;1.90;;
22040;SDS011;11184;52.444;13.578;2022-10-16T02:02:53;2.28;;;2.08;;
22040;SDS011;11184;52.444;13.578;2022-10-16T02:05:41;3.47;;;2.33;;
22040;SDS011;11184;52.444;13.578;2022-10-16T02:08:27;2.72;;;2.22;;
22040;SDS011;11184;52.444;13.578;2022-10-16T02:11:12;2.65;;;2.13;;
22040;SDS011;11184;52.444;13.578;2022-10-16T02:14:01;2.00;;;1.80;;
22040;SDS011;11184;52.444;13.578;2022-10-16T02:16:47;1.98;;;1.73;;
22040;SDS011;11184;52.444;13.578;2022-10-16T02:19:32;1.60;;;1.48;;
22040;SDS011;11184;52.444;13.578;2022-10-16T02:22:19;2.03;;;1.67;;
22040;SDS011;11184;52.444;13.578;2022-10-16T02:25:08;1.63;;;1.52;;
22040;SDS011;11184;52.444;13.578;2022-10-16T02:27:58;2.33;;;2.13;;
22040;SDS011;11184;52.444;13.578;2022-10-16T02:30:49;3.10;;;1.77;;
22040;SDS011;11184;52.444;13.578;2022-10-16T02:33:35;1.88;;;1.75;;
22040;SDS011;11184;52.444;13.578;2022-10-16T02:36:21;2.13;;;1.92;;
22040;SDS011;11184;52.444;13.578;2022-10-16T02:39:06;1.85;;;1.75;;
22040;SDS011;11184;52.444;13.578;2022-10-16T02:41:51;1.95;;;1.85;;
22040;SDS011;11184;52.444;13.578;2022-10-16T02:44:35;2.08;;;1.92;;
22040;SDS011;11184;52.444;13.578;2022-10-16T02:47:20;6.10;;;1.42;;
22040;SDS011;11184;52.444;13.578;2022-10-16T02:50:05;1.75;;;1.65;;
22040;SDS011;11184;52.444;13.578;2022-10-16T02:52:50;1.70;;;1.60;;
22040;SDS011;11184;52.444;13.578;2022-10-16T02:55:34;2.13;;;1.92;;
22040;SDS011;11184;52.444;13.578;2022-10-16T02:58:19;5.32;;;2.10;;
22040;SDS011;11184;52.444;13.578;2022-10-16T03:01:03;2.05;;;1.65;;
22040;SDS011;11184;52.444;13.578;2022-10-16T03:03:48;1.60;;;1.50;;
22040;SDS011;11184;52.444;13.578;2022-10-16T03:06:32;1.80;;;1.70;;
22040;SDS011;11184;52.444;13.578;2022-10-16T03:09:17;2.00;;;1.80;;
22040;SDS011;11184;52.444;13.578;2022-10-16T03:12:01;3.53;;;1.70;;
22040;SDS011;11184;52.444;13.578;2022-10-16T03:14:46;2.45;;;1.67;;
22040;SDS011;11184;52.444;13.578;2022-10-16T03:17:31;1.83;;;1.73;;
22040;SDS011;11184;52.444;13.578;2022-10-16T03:20:16;2.38;;;1.60;;
22040;SDS011;11184;52.444;13.578;2022-10-16T03:23:00;1.90;;;1.55;;
22040;SDS011;11184;52.444;13.578;2022-10-16T03:25:46;3.50;;;1.95;;
22040;SDS011;11184;52.444;13.578;2022-10-16T03:28:30;1.92;;;1.83;;
22040;SDS011;11184;52.444;13.578;2022-10-16T03:31:15;8.57;;;2.15;;
22040;SDS011;11184;52.444;13.578;2022-10-16T03:33:59;1.70;;;1.60;;
22040;SDS011;11184;52.444;13.578;2022-10-16T03:36:44;1.85;;;1.45;;
22040;SDS011;11184;52.444;13.578;2022-10-16T03:39:29;1.77;;;1.67;;
22040;SDS011;11184;52.444;13.578;2022-10-16T03:42:13;2.28;;;1.92;;
22040;SDS011;11184;52.444;13.578;2022-10-16T03:44:58;5.80;;;1.52;;
22040;SDS011;11184;52.444;13.578;2022-10-16T03:47:42;2.00;;;1.90;;
22040;SDS011;11184;52.444;13.578;2022-10-16T03:50:27;1.92;;;1.20;;
22040;SDS011;11184;52.444;13.578;2022-10-16T03:53:12;2.10;;;1.90;;
22040;SDS011;11184;52.444;13.578;2022-10-16T03:55:56;2.03;;;1.90;;
22040;SDS011;11184;52.444;13.578;2022-10-16T03:58:41;3.78;;;2.03;;
22040;SDS011;11184;52.444;13.578;2022-10-16T04:01:26;3.38;;;2.00;;
22040;SDS011;11184;52.444;13.578;2022-10-16T04:04:10;1.70;;;1.60;;
22040;SDS011;11184;52.444;13.578;2022-10-16T04:06:55;2.33;;;2.13;;
22040;SDS011;11184;52.444;13.578;2022-10-16T04:09:39;2.08;;;1.88;;
22040;SDS011;11184;52.444;13.578;2022-10-16T04:12:26;2.03;;;1.90;;
22040;SDS011;11184;52.444;13.578;2022-10-16T04:15:11;2.20;;;2.00;;
22040;SDS011;11184;52.444;13.578;2022-10-16T04:17:55;3.92;;;2.25;;
22040;SDS011;11184;52.444;13.578;2022-10-16T04:20:40;1.92;;;1.75;;
22040;SDS011;11184;52.444;13.578;2022-10-16T04:23:25;2.33;;;2.10;;
22040;SDS011;11184;52.444;13.578;2022-10-16T04:26:09;3.40;;;2.00;;
22040;SDS011;11184;52.444;13.578;2022-10-16T04:28:54;1.83;;;1.65;;
22040;SDS011;11184;52.444;13.578;2022-10-16T04:31:39;2.72;;;2.53;;
22040;SDS011;11184;52.444;13.578;2022-10-16T04:34:23;4.22;;;2.42;;
22040;SDS011;11184;52.444;13.578;2022-10-16T04:37:08;6.63;;;3.03;;
22040;SDS011;11184;52.444;13.578;2022-10-16T04:39:53;8.60;;;2.28;;
22040;SDS011;11184;52.444;13.578;2022-10-16T04:42:38;2.72;;;2.53;;
22040;SDS011;11184;52.444;13.578;2022-10-16T04:45:22;1.92;;;1.83;;
22040;SDS011;11184;52.444;13.578;2022-10-16T04:48:07;2.03;;;1.90;;
22040;SDS011;11184;52.444;13.578;2022-10-16T04:50:51;2.00;;;1.80;;
22040;SDS011;11184;52.444;13.578;2022-10-16T04:53:36;3.38;;;2.22;;
22040;SDS011;11184;52.444;13.578;2022-10-16T04:56:21;2.28;;;1.98;;
22040;SDS011;11184;52.444;13.578;2022-10-16T04:59:06;2.42;;;2.22;;
22040;SDS011;11184;52.444;13.578;2022-10-16T05:01:50;2.45;;;2.25;;
22040;SDS011;11184;52.444;13.578;2022-10-16T05:04:35;2.30;;;2.10;;
22040;SDS011;11184;52.444;13.578;2022-10-16T05:07:20;3.10;;;2.80;;
22040;SDS011;11184;52.444;13.578;2022-10-16T05:10:04;2.08;;;1.98;;
22040;SDS011;11184;52.444;13.578;2022-10-16T05:12:49;2.17;;;1.88;;
22040;SDS011;11184;52.444;13.578;2022-10-16T05:15:34;4.05;;;2.08;;
22040;SDS011;11184;52.444;13.578;2022-10-16T05:18:19;2.38;;;2.17;;
22040;SDS011;11184;52.444;13.578;2022-10-16T05:21:03;2.53;;;2.05;;
22040;SDS011;11184;52.444;13.578;2022-10-16T05:23:49;2.63;;;2.42;;
22040;SDS011;11184;52.444;13.578;2022-10-16T05:26:34;2.50;;;2.30;;
22040;SDS011;11184;52.444;13.578;2022-10-16T05:29:19;5.70;;;2.38;;
22040;SDS011;11184;52.444;13.578;2022-10-16T05:32:04;2.60;;;2.40;;
22040;SDS011;11184;52.444;13.578;2022-10-16T05:34:50;5.13;;;4.53;;
22040;SDS011;11184;52.444;13.578;2022-10-16T05:37:35;3.78;;;2.38;;
22040;SDS011;11184;52.444;13.578;2022-10-16T05:40:20;2.40;;;2.20;;
22040;SDS011;11184;52.444;13.578;2022-10-16T05:43:05;2.80;;;2.60;;
22040;SDS011;11184;52.444;13.578;2022-10-16T05:45:54;3.45;;;2.50;;
22040;SDS011;11184;52.444;13.578;2022-10-16T05:48:38;2.35;;;2.15;;
22040;SDS011;11184;52.444;13.578;2022-10-16T05:51:23;3.97;;;2.25;;
22040;SDS011;11184;52.444;13.578;2022-10-16T05:54:08;2.55;;;2.35;;
22040;SDS011;11184;52.444;13.578;2022-10-16T05:56:53;2.75;;;2.55;;
22040;SDS011;11184;52.444;13.578;2022-10-16T05:59:37;5.30;;;2.92;;
22040;SDS011;11184;52.444;13.578;2022-10-16T06:02:22;3.35;;;2.83;;
22040;SDS011;11184;52.444;13.578;2022-10-16T06:05:06;3.08;;;2.33;;
22040;SDS011;11184;52.444;13.578;2022-10-16T06:07:51;2.25;;;2.05;;
22040;SDS011;11184;52.444;13.578;2022-10-16T06:10:36;2.83;;;2.63;;
22040;SDS011;11184;52.444;13.578;2022-10-16T06:13:20;3.80;;;2.53;;
22040;SDS011;11184;52.444;13.578;2022-10-16T06:16:05;1.92;;;1.70;;
22040;SDS011;11184;52.444;13.578;2022-10-16T06:18:51;2.60;;;2.05;;
22040;SDS011;11184;52.444;13.578;2022-10-16T06:21:36;2.30;;;2.17;;
22040;SDS011;11184;52.444;13.578;2022-10-16T06:24:20;2.85;;;2.03;;
22040;SDS011;11184;52.444;13.578;2022-10-16T06:27:05;2.13;;;1.98;;
22040;SDS011;11184;52.444;13.578;2022-10-16T06:29:50;4.53;;;1.80;;
22040;SDS011;11184;52.444;13.578;2022-10-16T06:32:34;2.63;;;2.42;;
22040;SDS011;11184;52.444;13.578;2022-10-16T06:35:19;1.75;;;1.63;;
22040;SDS011;11184;52.444;13.578;2022-10-16T06:38:03;2.55;;;2.33;;
22040;SDS011;11184;52.444;13.578;2022-10-16T06:40:48;2.58;;;2.38;;
22040;SDS011;11184;52.444;13.578;2022-10-16T06:43:33;3.08;;;1.75;;
22040;SDS011;11184;52.444;13.578;2022-10-16T06:46:21;2.55;;;2.00;;
22040;SDS011;11184;52.444;13.578;2022-10-16T06:49:06;5.30;;;2.60;;
22040;SDS011;11184;52.444;13.578;2022-10-16T06:51:51;2.55;;;2.28;;
22040;SDS011;11184;52.444;13.578;2022-10-16T06:54:36;2.83;;;2.38;;
22040;SDS011;11184;52.444;13.578;2022-10-16T06:57:21;2.13;;;1.92;;
22040;SDS011;11184;52.444;13.578;2022-10-16T07:00:06;1.60;;;1.50;;
22040;SDS011;11184;52.444;13.578;2022-10-16T07:02:51;4.80;;;3.03;;
22040;SDS011;11184;52.444;13.578;2022-10-16T07:05:41;2.58;;;2.38;;
22040;SDS011;11184;52.444;13.578;2022-10-16T07:08:26;3.30;;;2.97;;
22040;SDS011;11184;52.444;13.578;2022-10-16T07:11:14;2.20;;;2.03;;
22040;SDS011;11184;52.444;13.578;2022-10-16T07:13:58;3.90;;;2.65;;
22040;SDS011;11184;52.444;13.578;2022-10-16T07:16:43;2.88;;;2.25;;
22040;SDS011;11184;52.444;13.578;2022-10-16T07:19:28;3.15;;;2.85;;
22040;SDS011;11184;52.444;13.578;2022-10-16T07:22:12;2.92;;;2.00;;
22040;SDS011;11184;52.444;13.578;2022-10-16T07:24:57;1.67;;;1.58;;
22040;SDS011;11184;52.444;13.578;2022-10-16T07:27:42;2.20;;;1.90;;
22040;SDS011;11184;52.444;13.578;2022-10-16T07:30:27;2.63;;;1.30;;
22040;SDS011;11184;52.444;13.578;2022-10-16T07:33:11;0.88;;;0.75;;
22040;SDS011;11184;52.444;13.578;2022-10-16T07:35:56;3.42;;;0.90;;
22040;SDS011;11184;52.444;13.578;2022-10-16T07:38:41;0.98;;;0.80;;
22040;SDS011;11184;52.444;13.578;2022-10-16T07:41:26;5.80;;;1.23;;
22040;SDS011;11184;52.444;13.578;2022-10-16T07:44:11;2.08;;;0.70;;
22040;SDS011;11184;52.444;13.578;2022-10-16T07:46:56;0.65;;;0.57;;
22040;SDS011;11184;52.444;13.578;2022-10-16T07:49:41;0.68;;;0.57;;
22040;SDS011;11184;52.444;13.578;2022-10-16T07:52:26;1.67;;;0.77;;
22040;SDS011;11184;52.444;13.578;2022-10-16T07:55:10;1.58;;;1.00;;
22040;SDS011;11184;52.444;13.578;2022-10-16T07:57:55;2.72;;;1.88;;
22040;SDS011;11184;52.444;13.578;2022-10-16T08:00:40;3.17;;;1.48;;
22040;SDS011;11184;52.444;13.578;2022-10-16T08:03:24;1.25;;;1.15;;
22040;SDS011;11184;52.444;13.578;2022-10-16T08:06:09;0.75;;;0.70;;
22040;SDS011;11184;52.444;13.578;2022-10-16T08:08:55;0.65;;;0.65;;
22040;SDS011;11184;52.444;13.578;2022-10-16T08:11:39;1.25;;;0.75;;
22040;SDS011;11184;52.444;13.578;2022-10-16T08:14:24;3.60;;;1.20;;
22040;SDS011;11184;52.444;13.578;2022-10-16T08:17:09;2.13;;;1.00;;
22040;SDS011;11184;52.444;13.578;2022-10-16T08:19:53;0.88;;;0.80;;
22040;SDS011;11184;52.444;13.578;2022-10-16T08:22:38;1.33;;;0.90;;
22040;SDS011;11184;52.444;13.578;2022-10-16T08:25:23;1.35;;;1.02;;
22040;SDS011;11184;52.444;13.578;2022-10-16T08:28:09;3.60;;;0.90;;
22040;SDS011;11184;52.444;13.578;2022-10-16T08:30:54;0.70;;;0.70;;
22040;SDS011;11184;52.444;13.578;2022-10-16T08:33:41;1.65;;;1.08;;
22040;SDS011;11184;52.444;13.578;2022-10-16T08:36:26;0.82;;;0.77;;
22040;SDS011;11184;52.444;13.578;2022-10-16T08:39:12;2.22;;;1.05;;
22040;SDS011;11184;52.444;13.578;2022-10-16T08:42:11;1.40;;;1.00;;
22040;SDS011;11184;52.444;13.578;2022-10-16T08:45:08;8.10;;;0.98;;
22040;SDS011;11184;52.444;13.578;2022-10-16T08:48:02;1.27;;;0.73;;
22040;SDS011;11184;52.444;13.578;2022-10-16T08:50:50;1.23;;;0.82;;
22040;SDS011;11184;52.444;13.578;2022-10-16T08:56:23;3.15;;;0.70;;
22040;SDS011;11184;52.444;13.578;2022-10-16T08:59:09;0.63;;;0.40;;
22040;SDS011;11184;52.444;13.578;2022-10-16T09:01:54;2.15;;;0.70;;
22040;SDS011;11184;52.444;13.578;2022-10-16T09:04:45;1.95;;;0.90;;
22040;SDS011;11184;52.444;13.578;2022-10-16T09:07:52;1.30;;;0.70;;
22040;SDS011;11184;52.444;13.578;2022-10-16T09:10:40;3.50;;;0.60;;
22040;SDS011;11184;52.444;13.578;2022-10-16T09:13:28;1.52;;;0.52;;
22040;SDS011;11184;52.444;13.578;2022-10-16T09:16:22;2.20;;;0.70;;
22040;SDS011;11184;52.444;13.578;2022-10-16T09:22:01;1.38;;;0.65;;
22040;SDS011;11184;52.444;13.578;2022-10-16T09:24:46;2.38;;;0.57;;
22040;SDS011;11184;52.444;13.578;2022-10-16T09:27:31;1.15;;;0.90;;
22040;SDS011;11184;52.444;13.578;2022-10-16T09:30:16;1.33;;;0.60;;
22040;SDS011;11184;52.444;13.578;2022-10-16T09:33:01;1.88;;;0.93;;
22040;SDS011;11184;52.444;13.578;2022-10-16T09:35:50;1.48;;;0.60;;
22040;SDS011;11184;52.444;13.578;2022-10-16T09:38:36;1.33;;;0.60;;
22040;SDS011;11184;52.444;13.578;2022-10-16T09:41:21;2.28;;;0.60;;
22040;SDS011;11184;52.444;13.578;2022-10-16T09:44:19;0.77;;;0.77;;
22040;SDS011;11184;52.444;13.578;2022-10-16T09:47:12;0.70;;;0.70;;
22040;SDS011;11184;52.444;13.578;2022-10-16T09:49:59;0.73;;;0.68;;
22040;SDS011;11184;52.444;13.578;2022-10-16T09:52:45;2.65;;;0.80;;
22040;SDS011;11184;52.444;13.578;2022-10-16T09:55:30;2.72;;;0.65;;
22040;SDS011;11184;52.444;13.578;2022-10-16T09:58:14;0.88;;;0.68;;
22040;SDS011;11184;52.444;13.578;2022-10-16T10:00:59;1.55;;;0.65;;
22040;SDS011;11184;52.444;13.578;2022-10-16T10:03:44;0.70;;;0.60;;
22040;SDS011;11184;52.444;13.578;2022-10-16T10:06:34;0.38;;;0.35;;
22040;SDS011;11184;52.444;13.578;2022-10-16T10:09:22;0.68;;;0.60;;
22040;SDS011;11184;52.444;13.578;2022-10-16T10:12:16;6.72;;;0.52;;
22040;SDS011;11184;52.444;13.578;2022-10-16T10:15:06;1.30;;;0.57;;
22040;SDS011;11184;52.444;13.578;2022-10-16T10:17:52;1.60;;;0.57;;
22040;SDS011;11184;52.444;13.578;2022-10-16T10:20:38;1.08;;;0.77;;
22040;SDS011;11184;52.444;13.578;2022-10-16T10:23:24;0.82;;;0.60;;
22040;SDS011;11184;52.444;13.578;2022-10-16T10:26:14;4.68;;;0.75;;
22040;SDS011;11184;52.444;13.578;2022-10-16T10:29:04;0.55;;;0.45;;
22040;SDS011;11184;52.444;13.578;2022-10-16T10:31:58;1.02;;;0.60;;
22040;SDS011;11184;52.444;13.578;2022-10-16T10:34:51;0.60;;;0.40;;
22040;SDS011;11184;52.444;13.578;2022-10-16T10:37:53;4.13;;;0.93;;
22040;SDS011;11184;52.444;13.578;2022-10-16T10:40:45;0.70;;;0.50;;
22040;SDS011;11184;52.444;13.578;2022-10-16T10:46:32;3.95;;;0.60;;
22040;SDS011;11184;52.444;13.578;2022-10-16T10:55:15;2.03;;;0.40;;
22040;SDS011;11184;52.444;13.578;2022-10-16T10:58:15;12.05;;;0.73;;
22040;SDS011;11184;52.444;13.578;2022-10-16T11:01:18;1.08;;;0.43;;
22040;SDS011;11184;52.444;13.578;2022-10-16T11:07:15;1.45;;;0.55;;
22040;SDS011;11184;52.444;13.578;2022-10-16T11:10:03;1.50;;;0.52;;
22040;SDS011;11184;52.444;13.578;2022-10-16T11:12:55;2.67;;;0.70;;
22040;SDS011;11184;52.444;13.578;2022-10-16T11:15:43;1.15;;;0.40;;
22040;SDS011;11184;52.444;13.578;2022-10-16T11:18:47;1.38;;;0.57;;
22040;SDS011;11184;52.444;13.578;2022-10-16T11:21:36;1.65;;;0.45;;
22040;SDS011;11184;52.444;13.578;2022-10-16T11:24:26;2.63;;;0.30;;
22040;SDS011;11184;52.444;13.578;2022-10-16T11:27:16;0.40;;;0.40;;
22040;SDS011;11184;52.444;13.578;2022-10-16T11:30:02;1.02;;;0.68;;
22040;SDS011;11184;52.444;13.578;2022-10-16T11:38:34;0.68;;;0.50;;
22040;SDS011;11184;52.444;13.578;2022-10-16T11:41:33;0.75;;;0.40;;
22040;SDS011;11184;52.444;13.578;2022-10-16T11:50:28;0.77;;;0.50;;
22040;SDS011;11184;52.444;13.578;2022-10-16T11:53:35;2.05;;;0.30;;
22040;SDS011;11184;52.444;13.578;2022-10-16T11:56:23;4.90;;;0.55;;
22040;SDS011;11184;52.444;13.578;2022-10-16T11:59:14;1.00;;;0.40;;
22040;SDS011;11184;52.444;13.578;2022-10-16T12:02:15;0.57;;;0.30;;
22040;SDS011;11184;52.444;13.578;2022-10-16T12:05:10;1.08;;;0.60;;
22040;SDS011;11184;52.444;13.578;2022-10-16T12:08:00;1.48;;;0.40;;
22040;SDS011;11184;52.444;13.578;2022-10-16T12:10:47;0.75;;;0.60;;
22040;SDS011;11184;52.444;13.578;2022-10-16T12:13:34;3.22;;;0.40;;
22040;SDS011;11184;52.444;13.578;2022-10-16T12:16:20;1.85;;;0.30;;
22040;SDS011;11184;52.444;13.578;2022-10-16T12:19:13;1.13;;;0.40;;
22040;SDS011;11184;52.444;13.578;2022-10-16T12:21:59;1.25;;;0.50;;
22040;SDS011;11184;52.444;13.578;2022-10-16T12:24:44;1.55;;;0.50;;
22040;SDS011;11184;52.444;13.578;2022-10-16T12:27:30;3.15;;;0.50;;
22040;SDS011;11184;52.444;13.578;2022-10-16T12:30:19;1.65;;;0.40;;
22040;SDS011;11184;52.444;13.578;2022-10-16T12:33:05;0.38;;;0.30;;
22040;SDS011;11184;52.444;13.578;2022-10-16T12:35:51;2.17;;;0.40;;
22040;SDS011;11184;52.444;13.578;2022-10-16T12:38:37;0.30;;;0.20;;
22040;SDS011;11184;52.444;13.578;2022-10-16T12:41:26;8.32;;;0.40;;
22040;SDS011;11184;52.444;13.578;2022-10-16T12:44:23;2.60;;;0.30;;
22040;SDS011;11184;52.444;13.578;2022-10-16T12:47:19;2.33;;;0.32;;
22040;SDS011;11184;52.444;13.578;2022-10-16T12:50:03;0.77;;;0.30;;
22040;SDS011;11184;52.444;13.578;2022-10-16T12:53:21;0.98;;;0.40;;
22040;SDS011;11184;52.444;13.578;2022-10-16T12:56:10;0.55;;;0.40;;
22040;SDS011;11184;52.444;13.578;2022-10-16T13:07:37;0.60;;;0.30;;
22040;SDS011;11184;52.444;13.578;2022-10-16T13:16:05;0.32;;;0.30;;
22040;SDS011;11184;52.444;13.578;2022-10-16T13:21:56;2.85;;;0.30;;
22040;SDS011;11184;52.444;13.578;2022-10-16T13:27:41;2.15;;;0.60;;
22040;SDS011;11184;52.444;13.578;2022-10-16T13:30:50;1.30;;;0.43;;
22040;SDS011;11184;52.444;13.578;2022-10-16T13:33:39;1.55;;;0.63;;
22040;SDS011;11184;52.444;13.578;2022-10-16T13:36:26;1.15;;;0.30;;
22040;SDS011;11184;52.444;13.578;2022-10-16T13:39:13;0.80;;;0.30;;
22040;SDS011;11184;52.444;13.578;2022-10-16T13:42:03;0.90;;;0.50;;
22040;SDS011;11184;52.444;13.578;2022-10-16T13:44:49;1.05;;;0.50;;
22040;SDS011;11184;52.444;13.578;2022-10-16T13:47:35;1.98;;;0.50;;
22040;SDS011;11184;52.444;13.578;2022-10-16T13:50:20;2.83;;;0.60;;
22040;SDS011;11184;52.444;13.578;2022-10-16T13:53:05;4.72;;;0.35;;
22040;SDS011;11184;52.444;13.578;2022-10-16T13:55:50;0.60;;;0.32;;
22040;SDS011;11184;52.444;13.578;2022-10-16T13:58:35;0.60;;;0.40;;
22040;SDS011;11184;52.444;13.578;2022-10-16T14:01:23;5.93;;;0.90;;
22040;SDS011;11184;52.444;13.578;2022-10-16T14:04:09;1.58;;;1.05;;
22040;SDS011;11184;52.444;13.578;2022-10-16T14:06:55;0.30;;;0.30;;
22040;SDS011;11184;52.444;13.578;2022-10-16T14:09:39;0.52;;;0.40;;
22040;SDS011;11184;52.444;13.578;2022-10-16T14:12:24;1.63;;;0.77;;
22040;SDS011;11184;52.444;13.578;2022-10-16T14:15:16;1.77;;;0.98;;
22040;SDS011;11184;52.444;13.578;2022-10-16T14:18:02;0.82;;;0.40;;
22040;SDS011;11184;52.444;13.578;2022-10-16T14:20:47;1.05;;;0.40;;
22040;SDS011;11184;52.444;13.578;2022-10-16T14:23:34;0.90;;;0.30;;
22040;SDS011;11184;52.444;13.578;2022-10-16T14:26:20;1.50;;;0.40;;
22040;SDS011;11184;52.444;13.578;2022-10-16T14:29:12;0.43;;;0.40;;
22040;SDS011;11184;52.444;13.578;2022-10-16T14:31:58;2.30;;;0.70;;
22040;SDS011;11184;52.444;13.578;2022-10-16T14:34:52;0.77;;;0.32;;
22040;SDS011;11184;52.444;13.578;2022-10-16T14:37:37;0.82;;;0.50;;
22040;SDS011;11184;52.444;13.578;2022-10-16T14:40:23;1.17;;;0.65;;
22040;SDS011;11184;52.444;13.578;2022-10-16T14:43:14;0.77;;;0.52;;
22040;SDS011;11184;52.444;13.578;2022-10-16T14:46:01;4.55;;;0.70;;
22040;SDS011;11184;52.444;13.578;2022-10-16T14:48:47;2.17;;;0.70;;
22040;SDS011;11184;52.444;13.578;2022-10-16T14:51:33;0.82;;;0.50;;
22040;SDS011;11184;52.444;13.578;2022-10-16T14:54:18;0.60;;;0.40;;
22040;SDS011;11184;52.444;13.578;2022-10-16T14:57:03;2.40;;;0.40;;
22040;SDS011;11184;52.444;13.578;2022-10-16T14:59:48;1.27;;;0.70;;
22040;SDS011;11184;52.444;13.578;2022-10-16T15:02:36;4.07;;;0.57;;
22040;SDS011;11184;52.444;13.578;2022-10-16T15:05:25;1.52;;;0.65;;
22040;SDS011;11184;52.444;13.578;2022-10-16T15:08:10;1.60;;;0.50;;
22040;SDS011;11184;52.444;13.578;2022-10-16T15:10:55;0.50;;;0.40;;
22040;SDS011;11184;52.444;13.578;2022-10-16T15:13:40;1.50;;;0.50;;
22040;SDS011;11184;52.444;13.578;2022-10-16T15:16:25;0.68;;;0.43;;
22040;SDS011;11184;52.444;13.578;2022-10-16T15:19:09;0.80;;;0.60;;
22040;SDS011;11184;52.444;13.578;2022-10-16T15:21:54;2.25;;;0.80;;
22040;SDS011;11184;52.444;13.578;2022-10-16T15:24:38;1.10;;;0.80;;
22040;SDS011;11184;52.444;13.578;2022-10-16T15:27:23;5.72;;;1.38;;
22040;SDS011;11184;52.444;13.578;2022-10-16T15:30:08;1.90;;;1.70;;
22040;SDS011;11184;52.444;13.578;2022-10-16T15:32:52;1.20;;;0.60;;
22040;SDS011;11184;52.444;13.578;2022-10-16T15:35:37;1.58;;;0.90;;
22040;SDS011;11184;52.444;13.578;2022-10-16T15:38:22;0.65;;;0.60;;
22040;SDS011;11184;52.444;13.578;2022-10-16T15:41:07;0.63;;;0.52;;
22040;SDS011;11184;52.444;13.578;2022-10-16T15:43:51;3.35;;;0.77;;
22040;SDS011;11184;52.444;13.578;2022-10-16T15:46:36;1.05;;;0.60;;
22040;SDS011;11184;52.444;13.578;2022-10-16T15:49:21;1.13;;;0.52;;
22040;SDS011;11184;52.444;13.578;2022-10-16T15:52:06;1.42;;;0.63;;
22040;SDS011;11184;52.444;13.578;2022-10-16T15:54:50;4.25;;;0.93;;
22040;SDS011;11184;52.444;13.578;2022-10-16T15:57:35;1.00;;;0.50;;
22040;SDS011;11184;52.444;13.578;2022-10-16T16:00:21;1.63;;;0.82;;
22040;SDS011;11184;52.444;13.578;2022-10-16T16:03:09;1.67;;;0.82;;
22040;SDS011;11184;52.444;13.578;2022-10-16T16:05:53;1.85;;;0.90;;
22040;SDS011;11184;52.444;13.578;2022-10-16T16:08:38;1.48;;;0.82;;
22040;SDS011;11184;52.444;13.578;2022-10-16T16:11:23;1.27;;;0.80;;
22040;SDS011;11184;52.444;13.578;2022-10-16T16:14:10;2.78;;;1.88;;
22040;SDS011;11184;52.444;13.578;2022-10-16T16:16:57;3.20;;;1.50;;
22040;SDS011;11184;52.444;13.578;2022-10-16T16:19:41;4.25;;;2.70;;
22040;SDS011;11184;52.444;13.578;2022-10-16T16:22:26;4.28;;;1.55;;
22040;SDS011;11184;52.444;13.578;2022-10-16T16:25:10;3.10;;;2.13;;
22040;SDS011;11184;52.444;13.578;2022-10-16T16:27:55;1.75;;;1.13;;
22040;SDS011;11184;52.444;13.578;2022-10-16T16:30:40;2.75;;;1.73;;
22040;SDS011;11184;52.444;13.578;2022-10-16T16:33:25;1.98;;;1.33;;
22040;SDS011;11184;52.444;13.578;2022-10-16T16:36:10;2.33;;;1.77;;
22040;SDS011;11184;52.444;13.578;2022-10-16T16:38:54;1.73;;;1.13;;
22040;SDS011;11184;52.444;13.578;2022-10-16T16:41:39;3.90;;;1.65;;
22040;SDS011;11184;52.444;13.578;2022-10-16T16:44:23;2.28;;;1.98;;
22040;SDS011;11184;52.444;13.578;2022-10-16T16:47:09;3.00;;;1.80;;
22040;SDS011;11184;52.444;13.578;2022-10-16T16:49:53;4.47;;;2.35;;
22040;SDS011;11184;52.444;13.578;2022-10-16T16:52:38;5.28;;;3.22;;
22040;SDS011;11184;52.444;13.578;2022-10-16T16:55:23;6.05;;;3.60;;
22040;SDS011;11184;52.444;13.578;2022-10-16T16:58:07;4.82;;;4.35;;
22040;SDS011;11184;52.444;13.578;2022-10-16T17:00:52;8.93;;;3.72;;
22040;SDS011;11184;52.444;13.578;2022-10-16T17:03:36;7.70;;;3.55;;
22040;SDS011;11184;52.444;13.578;2022-10-16T17:06:23;6.93;;;3.90;;
22040;SDS011;11184;52.444;13.578;2022-10-16T17:09:08;11.35;;;5.03;;
22040;SDS011;11184;52.444;13.578;2022-10-16T17:11:56;13.02;;;5.15;;
22040;SDS011;11184;52.444;13.578;2022-10-16T17:14:41;11.70;;;6.47;;
22040;SDS011;11184;52.444;13.578;2022-10-16T17:17:26;7.22;;;5.13;;
22040;SDS011;11184;52.444;13.578;2022-10-16T17:20:10;7.43;;;5.85;;
22040;SDS011;11184;52.444;13.578;2022-10-16T17:22:55;8.68;;;6.03;;
22040;SDS011;11184;52.444;13.578;2022-10-16T17:25:40;7.78;;;5.10;;
22040;SDS011;11184;52.444;13.578;2022-10-16T17:28:24;4.82;;;3.85;;
22040;SDS011;11184;52.444;13.578;2022-10-16T17:31:10;6.35;;;3.63;;